Time;durP1;ratioP1;P1;durP2;ratioP2;P2;SDS_P1;SDS_P2;PMS_P1;PMS_P2;Temp;Humidity;BMP_temperature;BMP_pressure;BME280_temperature;BME280_humidity;BME280_pressure;Samples;Min_cycle;Max_cycle;Signal;HPM_P1;HPM_P2
2024/01/21 00:00:29;;;;;;;23.75;14.35;;;19.30;42.10;;;;;;5094308;28;20031;-77
2024/01/21 00:02:55;;;;;;;20.52;12.88;;;21.50;42.90;;;;;;5112054;28;20047;-77
2024/01/21 00:05:21;;;;;;;24.27;12.90;;;20.00;42.20;;;;;;5111907;28;20052;-77
2024/01/21 00:07:47;;;;;;;23.05;13.63;;;19.20;41.80;;;;;;5093961;28;20386;-77
2024/01/21 00:10:13;;;;;;;18.77;13.10;;;19.20;42.70;;;;;;5077064;28;20084;-77
2024/01/21 00:12:40;;;;;;;22.17;13.52;;;19.30;41.60;;;;;;5112105;28;20440;-77
2024/01/21 00:15:06;;;;;;;22.60;13.05;;;19.40;41.60;;;;;;5112004;28;20054;-77
2024/01/21 00:17:32;;;;;;;21.25;12.35;;;19.40;41.90;;;;;;5111958;28;20467;-77
2024/01/21 00:19:59;;;;;;;19.00;11.35;;;19.40;41.10;;;;;;5112024;28;20032;-77
2024/01/21 00:22:25;;;;;;;20.23;11.63;;;19.20;41.30;;;;;;5111843;28;20024;-77
2024/01/21 00:24:51;;;;;;;20.73;11.55;;;19.20;42.10;;;;;;5111810;28;20036;-78
2024/01/21 00:27:17;;;;;;;17.13;10.48;;;19.20;41.90;;;;;;5093270;28;20047;-77
2024/01/21 00:29:43;;;;;;;15.43;10.95;;;19.30;41.70;;;;;;5068117;28;20135;-77
2024/01/21 00:32:09;;;;;;;17.92;12.50;;;19.40;41.30;;;;;;5068569;28;20048;-76
2024/01/21 00:34:35;;;;;;;18.80;11.32;;;19.20;41.40;;;;;;5068583;28;20415;-78
2024/01/21 00:37:01;;;;;;;23.13;11.85;;;19.30;41.60;;;;;;5068818;28;20038;-76
2024/01/21 00:39:28;;;;;;;20.67;12.88;;;19.30;41.70;;;;;;5068476;28;20036;-74
2024/01/21 00:41:55;;;;;;;22.02;13.25;;;19.30;41.60;;;;;;5068753;28;20056;-77
2024/01/21 00:44:21;;;;;;;19.27;12.45;;;19.20;41.50;;;;;;5034935;28;20062;-78
2024/01/21 00:46:47;;;;;;;21.85;12.57;;;19.30;41.80;;;;;;5068200;28;20036;-76
2024/01/21 00:49:13;;;;;;;18.98;12.07;;;19.20;41.70;;;;;;5068266;28;20056;-77
2024/01/21 00:51:39;;;;;;;22.90;12.20;;;19.40;42.00;;;;;;5068688;28;20036;-78
2024/01/21 00:54:06;;;;;;;18.60;12.05;;;19.20;41.80;;;;;;5068161;28;20479;-77
2024/01/21 00:56:32;;;;;;;18.90;11.07;;;19.40;41.90;;;;;;5068468;28;20047;-77
2024/01/21 00:58:58;;;;;;;18.48;11.93;;;19.30;41.90;;;;;;5068436;28;20027;-77
2024/01/21 01:01:24;;;;;;;18.08;12.07;;;19.40;41.80;;;;;;5084739;28;20064;-77
2024/01/21 01:03:50;;;;;;;22.63;13.15;;;19.40;41.80;;;;;;5093175;28;20032;-77
2024/01/21 01:06:17;;;;;;;20.10;12.30;;;19.40;41.70;;;;;;5076494;28;20390;-78
2024/01/21 01:08:43;;;;;;;16.55;12.05;;;19.40;41.70;;;;;;5111277;28;20088;-77
2024/01/21 01:11:09;;;;;;;20.67;13.10;;;19.40;41.60;;;;;;5111575;28;20036;-77
2024/01/21 01:13:35;;;;;;;20.38;12.07;;;19.40;41.60;;;;;;5093294;28;20105;-77
2024/01/21 01:16:02;;;;;;;20.73;13.65;;;19.50;41.60;;;;;;5111603;28;20051;-77
2024/01/21 01:18:28;;;;;;;20.98;12.38;;;19.50;41.60;;;;;;5093019;28;20039;-77
2024/01/21 01:20:54;;;;;;;23.17;13.93;;;19.50;41.70;;;;;;5111050;28;20433;-78
2024/01/21 01:23:20;;;;;;;21.90;13.13;;;19.40;41.60;;;;;;5111535;28;20023;-77
2024/01/21 01:25:47;;;;;;;22.95;14.40;;;19.50;41.60;;;;;;5111250;28;20046;-74
2024/01/21 01:28:13;;;;;;;20.90;13.52;;;19.50;41.70;;;;;;5030912;28;20402;-77
2024/01/21 01:30:39;;;;;;;21.58;13.65;;;19.50;41.70;;;;;;5047954;28;20053;-78
2024/01/21 01:33:06;;;;;;;17.48;10.52;;;19.50;41.70;;;;;;5030919;28;20049;-77
2024/01/21 01:35:32;;;;;;;20.58;13.07;;;19.50;41.70;;;;;;5030985;28;20087;-76
2024/01/21 01:37:58;;;;;;;19.35;13.15;;;19.40;41.60;;;;;;5031113;28;20497;-76
2024/01/21 01:40:24;;;;;;;21.23;12.65;;;19.50;41.80;;;;;;5031368;28;20453;-77
2024/01/21 01:43:02;;;;;;;24.60;15.68;;;19.50;41.80;;;;;;5049759;28;20373;-77
2024/01/21 01:45:29;;;;;;;24.85;13.82;;;19.50;41.90;;;;;;5050993;28;20052;-77
2024/01/21 01:47:57;;;;;;;22.85;13.68;;;19.60;42.50;;;;;;5034456;28;20064;-77
2024/01/21 01:50:23;;;;;;;19.55;13.23;;;19.70;42.20;;;;;;5051053;28;20124;-77
2024/01/21 01:52:50;;;;;;;24.60;12.57;;;19.80;41.90;;;;;;5051160;28;20070;-76
2024/01/21 01:55:17;;;;;;;19.50;12.35;;;19.90;41.90;;;;;;5051252;28;20037;-77
2024/01/21 01:57:47;;;;;;;23.45;12.73;;;19.90;41.90;;;;;;5051002;28;20523;-77
2024/01/21 02:00:14;;;;;;;28.83;15.48;;;19.90;42.00;;;;;;5034186;28;20148;-78
2024/01/21 02:02:43;;;;;;;24.55;13.75;;;19.80;41.80;;;;;;5034240;28;20055;-77
2024/01/21 02:05:09;;;;;;;23.35;15.70;;;19.80;41.90;;;;;;5052348;28;20063;-77
2024/01/21 02:07:35;;;;;;;31.75;17.13;;;19.90;41.90;;;;;;5114214;28;20085;-76
2024/01/21 02:10:02;;;;;;;32.10;17.92;;;19.90;41.90;;;;;;5095225;28;20354;-77
2024/01/21 02:12:28;;;;;;;32.42;18.48;;;19.80;41.80;;;;;;5070640;28;20044;-78
2024/01/21 02:14:55;;;;;;;33.03;18.40;;;19.80;41.80;;;;;;5054037;28;20506;-77
2024/01/21 02:17:21;;;;;;;33.20;18.98;;;19.80;41.90;;;;;;5070630;28;20052;-77
2024/01/21 02:19:47;;;;;;;32.30;18.73;;;19.80;41.80;;;;;;5070729;28;20054;-78
2024/01/21 02:22:13;;;;;;;29.60;18.55;;;19.80;41.80;;;;;;5071004;28;20028;-78
2024/01/21 02:24:39;;;;;;;29.08;17.75;;;19.70;41.60;;;;;;5070479;28;20499;-77
2024/01/21 02:27:05;;;;;;;29.95;18.02;;;19.60;41.50;;;;;;5069859;28;20523;-77
2024/01/21 02:29:31;;;;;;;31.10;16.80;;;19.80;41.70;;;;;;5053626;28;20056;-77
2024/01/21 02:31:58;;;;;;;31.52;16.40;;;19.70;41.80;;;;;;5070318;28;20040;-78
2024/01/21 02:34:24;;;;;;;26.08;15.65;;;19.60;41.80;;;;;;5081726;28;20122;-78
2024/01/21 02:36:50;;;;;;;26.92;17.58;;;19.70;41.90;;;;;;5090504;28;20056;-77
2024/01/21 02:39:16;;;;;;;27.08;17.27;;;19.80;41.90;;;;;;5090359;28;20127;-77
2024/01/21 02:41:43;;;;;;;27.30;16.17;;;19.90;41.90;;;;;;5090297;28;20047;-77
2024/01/21 02:44:09;;;;;;;27.50;15.55;;;19.80;41.80;;;;;;5073239;28;20067;-77
2024/01/21 02:46:35;;;;;;;28.65;15.48;;;19.70;41.80;;;;;;5090089;28;20032;-77
2024/01/21 02:49:01;;;;;;;24.23;15.38;;;19.90;41.80;;;;;;5069803;28;20044;-78
2024/01/21 02:51:27;;;;;;;23.63;14.30;;;19.90;41.90;;;;;;5074287;28;20031;-78
2024/01/21 02:53:53;;;;;;;21.20;14.07;;;19.80;41.80;;;;;;5092313;28;20030;-77
2024/01/21 02:56:23;;;;;;;23.58;14.63;;;19.90;41.90;;;;;;5093322;28;20037;-78
2024/01/21 02:58:51;;;;;;;26.00;13.82;;;19.90;41.80;;;;;;5094871;28;20038;-76
2024/01/21 03:01:18;;;;;;;25.40;13.90;;;19.90;41.80;;;;;;5094471;28;20455;-77
2024/01/21 03:03:44;;;;;;;23.30;14.38;;;20.00;41.80;;;;;;5112682;28;20670;-77
2024/01/21 03:06:11;;;;;;;22.38;13.52;;;20.00;41.80;;;;;;5112917;28;20538;-78
2024/01/21 03:08:37;;;;;;;22.23;14.57;;;19.90;41.80;;;;;;5112898;28;20039;-77
2024/01/21 03:11:04;;;;;;;20.92;12.82;;;19.90;41.80;;;;;;5112800;28;20054;-76
2024/01/21 03:13:30;;;;;;;24.27;14.10;;;20.00;41.80;;;;;;5113011;28;20391;-78
2024/01/21 03:15:56;;;;;;;23.80;13.48;;;19.90;41.80;;;;;;5112337;28;20040;-77
2024/01/21 03:18:22;;;;;;;23.65;13.65;;;20.00;41.80;;;;;;5112700;28;20031;-77
2024/01/21 03:20:48;;;;;;;25.05;14.25;;;20.00;41.80;;;;;;5094574;28;20413;-77
2024/01/21 03:23:15;;;;;;;24.52;14.55;;;20.00;41.70;;;;;;5112571;28;20122;-77
2024/01/21 03:25:41;;;;;;;25.85;15.43;;;20.00;41.80;;;;;;5112371;28;20501;-77
2024/01/21 03:28:07;;;;;;;28.73;15.18;;;20.00;41.90;;;;;;5112491;28;20043;-77
2024/01/21 03:30:33;;;;;;;24.23;14.23;;;19.90;41.90;;;;;;5077984;28;20064;-77
2024/01/21 03:32:59;;;;;;;23.90;15.52;;;20.00;41.80;;;;;;5112335;28;20558;-78
2024/01/21 03:35:25;;;;;;;27.38;16.45;;;19.80;41.80;;;;;;5112413;28;20297;-78
2024/01/21 03:37:52;;;;;;;27.67;14.57;;;19.90;41.90;;;;;;5068627;28;20052;-75
2024/01/21 03:40:18;;;;;;;23.42;14.45;;;19.90;41.90;;;;;;5069085;28;20441;-77
2024/01/21 03:42:45;;;;;;;26.73;14.65;;;20.00;41.90;;;;;;5068639;28;20048;-77
2024/01/21 03:45:12;;;;;;;25.35;13.88;;;20.00;41.80;;;;;;5036185;28;20037;-77
2024/01/21 03:47:38;;;;;;;19.42;12.75;;;20.00;41.80;;;;;;5068627;28;20040;-78
2024/01/21 03:50:05;;;;;;;22.27;13.75;;;20.00;41.80;;;;;;5052320;28;20041;-77
2024/01/21 03:52:31;;;;;;;21.45;13.15;;;20.10;41.80;;;;;;5068810;28;20047;-77
2024/01/21 03:54:57;;;;;;;21.25;12.98;;;20.00;41.80;;;;;;5068939;28;20089;-77
2024/01/21 03:57:23;;;;;;;21.77;13.23;;;20.00;41.70;;;;;;5068675;28;20052;-77
2024/01/21 03:59:50;;;;;;;24.50;13.25;;;20.10;41.80;;;;;;5068893;28;20492;-78
2024/01/21 04:02:16;;;;;;;21.65;13.45;;;20.10;41.80;;;;;;5069110;28;20140;-78
2024/01/21 04:04:44;;;;;;;22.42;12.75;;;20.10;41.70;;;;;;5068544;28;20040;-76
2024/01/21 04:07:11;;;;;;;25.73;13.13;;;20.20;41.70;;;;;;5035110;28;20483;-76
2024/01/21 04:09:37;;;;;;;24.75;13.20;;;20.10;41.70;;;;;;5103772;28;20040;-78
2024/01/21 04:12:03;;;;;;;24.80;13.00;;;20.00;41.60;;;;;;5093324;28;20036;-78
2024/01/21 04:14:29;;;;;;;20.17;12.10;;;20.10;41.70;;;;;;5093352;28;20024;-78
2024/01/21 04:16:55;;;;;;;21.88;12.98;;;20.20;42.00;;;;;;5111680;28;20140;-76
2024/01/21 04:19:21;;;;;;;19.98;12.50;;;20.20;41.80;;;;;;5111916;28;20462;-77
2024/01/21 04:21:47;;;;;;;26.15;14.80;;;20.20;41.70;;;;;;5111596;28;20118;-77
2024/01/21 04:24:13;;;;;;;21.38;13.40;;;20.10;41.70;;;;;;5111651;28;20042;-78
2024/01/21 04:26:39;;;;;;;24.08;14.75;;;21.40;42.40;;;;;;5111098;28;20491;-78
2024/01/21 04:29:05;;;;;;;22.02;13.23;;;20.10;41.70;;;;;;5068210;28;20143;-77
2024/01/21 04:31:32;;;;;;;21.10;13.45;;;20.20;41.80;;;;;;5068345;28;20044;-78
2024/01/21 04:33:58;;;;;;;21.33;12.95;;;20.20;41.80;;;;;;5068530;28;20465;-77
2024/01/21 04:36:24;;;;;;;24.58;15.45;;;20.20;41.70;;;;;;5068345;28;20033;-76
2024/01/21 04:38:50;;;;;;;25.48;15.43;;;20.30;41.80;;;;;;5051703;28;20377;-78
2024/01/21 04:41:16;;;;;;;23.55;13.35;;;20.30;41.70;;;;;;5068715;28;20029;-78
2024/01/21 04:43:44;;;;;;;24.27;14.20;;;20.20;41.70;;;;;;5071633;28;20054;-77
2024/01/21 04:46:10;;;;;;;21.20;14.15;;;20.30;41.80;;;;;;5068402;28;20032;-77
2024/01/21 04:48:36;;;;;;;27.52;14.32;;;20.30;41.80;;;;;;5068375;28;20124;-78
2024/01/21 04:51:03;;;;;;;21.08;12.40;;;20.30;41.70;;;;;;5084588;28;20036;-78
2024/01/21 04:53:29;;;;;;;19.92;12.10;;;20.40;41.70;;;;;;5051727;28;20051;-77
2024/01/21 04:55:55;;;;;;;22.55;13.82;;;20.40;41.60;;;;;;5051682;28;20177;-77
2024/01/21 04:58:21;;;;;;;16.35;10.73;;;20.30;41.70;;;;;;5051546;28;20068;-78
2024/01/21 05:00:47;;;;;;;18.58;11.00;;;20.30;41.70;;;;;;5084395;28;20043;-76
2024/01/21 05:03:13;;;;;;;17.10;10.95;;;20.30;41.60;;;;;;5111165;28;20035;-77
2024/01/21 05:05:39;;;;;;;15.57;9.80;;;20.30;41.60;;;;;;5092798;28;20383;-77
2024/01/21 05:08:06;;;;;;;13.68;9.02;;;20.30;41.60;;;;;;5092326;28;20031;-78
2024/01/21 05:10:32;;;;;;;18.20;10.18;;;20.30;41.60;;;;;;5111241;28;20038;-78
2024/01/21 05:12:58;;;;;;;18.02;9.82;;;20.40;41.50;;;;;;5111173;28;20073;-77
2024/01/21 05:15:24;;;;;;;15.75;9.32;;;22.40;42.60;;;;;;5110885;28;20183;-78
2024/01/21 05:17:50;;;;;;;21.83;11.40;;;19.90;42.50;;;;;;5113269;28;20428;-77
2024/01/21 05:20:16;;;;;;;21.77;12.73;;;20.40;41.10;;;;;;5096544;28;20043;-78
2024/01/21 05:22:42;;;;;;;24.90;12.30;;;20.50;43.10;;;;;;5096763;28;20395;-77
2024/01/21 05:25:08;;;;;;;22.40;12.98;;;20.80;42.40;;;;;;5114936;28;20028;-78
2024/01/21 05:27:35;;;;;;;19.60;11.90;;;20.80;41.00;;;;;;5114770;28;20062;-78
2024/01/21 05:30:02;;;;;;;21.85;14.18;;;20.60;40.20;;;;;;5096305;28;20384;-77
2024/01/21 05:32:28;;;;;;;23.92;14.68;;;21.10;41.00;;;;;;5096329;28;20051;-78
2024/01/21 05:34:54;;;;;;;25.98;14.35;;;20.40;40.80;;;;;;5114725;28;20046;-78
2024/01/21 05:37:20;;;;;;;23.05;14.32;;;20.60;41.20;;;;;;5114480;28;20028;-77
2024/01/21 05:39:46;;;;;;;20.40;13.52;;;20.50;43.30;;;;;;5096418;28;20802;-77
2024/01/21 05:42:13;;;;;;;20.45;12.70;;;20.70;41.00;;;;;;5114698;28;20031;-78
2024/01/21 05:44:39;;;;;;;22.25;12.68;;;21.70;43.30;;;;;;5096151;28;20110;-78
2024/01/21 05:47:05;;;;;;;22.00;13.23;;;20.70;41.00;;;;;;5079072;28;20038;-77
2024/01/21 05:49:31;;;;;;;16.88;11.63;;;20.70;40.80;;;;;;5114114;28;20040;-77
2024/01/21 05:51:58;;;;;;;18.48;12.68;;;20.60;42.80;;;;;;5095970;28;20070;-78
2024/01/21 05:54:25;;;;;;;24.98;14.27;;;20.60;40.70;;;;;;5114050;28;20562;-77
2024/01/21 05:56:51;;;;;;;21.48;13.10;;;21.00;42.30;;;;;;5095687;28;20063;-76
2024/01/21 05:59:19;;;;;;;24.85;14.23;;;21.20;42.00;;;;;;5129854;27;20111;-78
2024/01/21 06:01:49;;;;;;;21.48;13.55;;;21.90;41.50;;;;;;5113950;28;20076;-77
2024/01/21 06:04:16;;;;;;;24.63;15.05;;;20.60;39.40;;;;;;5114148;28;20106;-78
2024/01/21 06:06:42;;;;;;;23.85;14.73;;;21.00;41.60;;;;;;5113781;28;20035;-77
2024/01/21 06:09:08;;;;;;;24.27;15.55;;;21.00;39.40;;;;;;5113843;28;20051;-78
2024/01/21 06:11:35;;;;;;;25.45;15.88;;;21.10;41.50;;;;;;5113985;28;20059;-77
2024/01/21 06:14:01;;;;;;;22.40;15.20;;;21.00;41.30;;;;;;5113717;28;20470;-77
2024/01/21 06:16:27;;;;;;;30.08;17.55;;;21.10;41.20;;;;;;5113453;28;20110;-77
2024/01/21 06:18:53;;;;;;;27.52;16.98;;;21.10;41.00;;;;;;5113199;28;20038;-77
2024/01/21 06:21:19;;;;;;;28.92;16.50;;;21.10;40.90;;;;;;5113216;28;20035;-78
2024/01/21 06:23:45;;;;;;;27.35;18.13;;;20.90;40.70;;;;;;5113426;28;20035;-76
2024/01/21 06:26:19;;;;;;;31.70;17.85;;;21.10;40.80;;;;;;5113165;28;20090;-77
2024/01/21 06:28:52;;;;;;;24.52;16.65;;;21.20;40.80;;;;;;5112106;28;20043;-77
2024/01/21 06:31:19;;;;;;;24.25;17.10;;;21.20;40.90;;;;;;5129352;27;20039;-77
2024/01/21 06:33:45;;;;;;;24.63;15.82;;;23.30;40.50;;;;;;5113191;28;20039;-77
2024/01/21 06:36:11;;;;;;;24.30;14.45;;;20.90;39.80;;;;;;5113226;28;20035;-78
2024/01/21 06:38:40;;;;;;;30.75;19.73;;;20.60;41.70;;;;;;5113194;28;20492;-78
2024/01/21 06:41:06;;;;;;;22.95;13.48;;;20.60;42.30;;;;;;5112952;28;20039;-78
2024/01/21 06:43:32;;;;;;;20.02;12.90;;;20.90;42.10;;;;;;5112708;28;20034;-77
2024/01/21 06:45:58;;;;;;;17.52;11.50;;;21.70;42.50;;;;;;5074412;28;20395;-77
2024/01/21 06:48:24;;;;;;;21.23;13.35;;;21.00;40.30;;;;;;5074189;28;20085;-78
2024/01/21 06:50:51;;;;;;;19.33;12.60;;;20.80;40.10;;;;;;5114029;27;20024;-77
2024/01/21 06:53:17;;;;;;;16.80;11.32;;;20.70;40.50;;;;;;5113234;28;20175;-78
2024/01/21 06:55:44;;;;;;;18.63;11.27;;;20.30;41.00;;;;;;5094482;28;20402;-78
2024/01/21 06:58:10;;;;;;;16.67;10.32;;;21.00;41.80;;;;;;5112420;28;20569;-77
2024/01/21 07:00:36;;;;;;;16.38;10.35;;;24.40;42.00;;;;;;5113234;28;20031;-77
2024/01/21 07:03:02;;;;;;;16.77;10.57;;;20.90;40.00;;;;;;5112662;28;20036;-77
2024/01/21 07:05:29;;;;;;;19.83;11.98;;;20.90;40.30;;;;;;5112918;28;20031;-78
2024/01/21 07:07:56;;;;;;;18.13;11.85;;;18.20;38.20;;;;;;5112646;28;20019;-78
2024/01/21 07:10:23;;;;;;;23.45;12.85;;;23.40;42.30;;;;;;5112609;28;20114;-78
2024/01/21 07:12:50;;;;;;;25.13;14.43;;;21.10;43.70;;;;;;5094092;28;20038;-77
2024/01/21 07:15:16;;;;;;;26.83;15.77;;;21.20;47.40;;;;;;5094279;28;20522;-77
2024/01/21 07:17:43;;;;;;;20.88;13.82;;;21.00;40.20;;;;;;5112494;28;20027;-77
2024/01/21 07:20:12;;;;;;;24.02;16.42;;;22.10;40.70;;;;;;5094427;28;20027;-78
2024/01/21 07:22:38;;;;;;;27.98;18.83;;;20.80;47.60;;;;;;5112743;28;20359;-76
2024/01/21 07:25:05;;;;;;;34.15;19.00;;;18.30;38.60;;;;;;5112159;28;20043;-77
2024/01/21 07:27:31;;;;;;;32.67;17.83;;;20.70;40.40;;;;;;5094869;28;20067;-77
2024/01/21 07:29:57;;;;;;;25.95;17.17;;;20.60;47.80;;;;;;5112248;28;20039;-77
2024/01/21 07:32:23;;;;;;;25.73;17.00;;;19.80;40.90;;;;;;5112622;28;20092;-77
2024/01/21 07:34:49;;;;;;;26.90;19.05;;;19.00;41.30;;;;;;5112269;28;20023;-77
2024/01/21 07:37:16;;;;;;;36.60;20.67;;;20.90;48.00;;;;;;5112341;28;20034;-77
2024/01/21 07:39:42;;;;;;;35.13;20.70;;;20.80;43.20;;;;;;5093210;28;20039;-77
2024/01/21 07:42:08;;;;;;;32.67;20.23;;;20.60;41.70;;;;;;5112134;28;20043;-76
2024/01/21 07:44:34;;;;;;;31.45;18.50;;;20.70;40.40;;;;;;5093941;28;20043;-77
2024/01/21 07:47:00;;;;;;;30.75;18.85;;;20.70;42.90;;;;;;5093887;28;20479;-76
2024/01/21 07:49:26;;;;;;;31.95;17.02;;;19.10;39.50;;;;;;5093922;28;20370;-77
2024/01/21 07:51:52;;;;;;;27.83;17.80;;;20.80;40.20;;;;;;5112321;28;20100;-76
2024/01/21 07:54:18;;;;;;;22.52;14.00;;;20.60;40.90;;;;;;5093690;28;20122;-77
2024/01/21 07:56:45;;;;;;;13.55;9.23;;;20.70;41.30;;;;;;5093579;28;20817;-77
2024/01/21 07:59:11;;;;;;;11.77;8.07;;;20.60;41.20;;;;;;5111459;28;20031;-77
2024/01/21 08:01:39;;;;;;;11.10;7.88;;;20.70;41.20;;;;;;5094753;28;20039;-77
2024/01/21 08:04:05;;;;;;;12.13;7.53;;;19.00;41.00;;;;;;5093954;28;20499;-76
2024/01/21 08:06:31;;;;;;;13.00;9.40;;;21.70;43.60;;;;;;5112182;28;20103;-78
2024/01/21 08:08:57;;;;;;;10.73;7.32;;;20.10;40.80;;;;;;5068535;28;20063;-77
2024/01/21 08:11:30;;;;;;;12.38;6.50;;;17.80;40.70;;;;;;5032576;28;20041;-78
2024/01/21 08:13:56;;;;;;;;;;;20.80;40.90;;;;;;5032954;28;20048;-77
2024/01/21 08:16:22;;;;;;;26.40;16.25;;;21.20;41.50;;;;;;5048614;28;19925;-77
2024/01/21 08:18:48;;;;;;;25.80;16.13;;;20.70;40.90;;;;;;5048782;28;20044;-77
2024/01/21 08:21:14;;;;;;;26.00;14.98;;;20.80;41.10;;;;;;5048852;28;20389;-78
2024/01/21 08:23:41;;;;;;;24.80;14.55;;;20.60;40.90;;;;;;5048608;28;20069;-77
2024/01/21 08:26:07;;;;;;;23.13;14.65;;;17.00;40.20;;;;;;5048484;28;20037;-77
2024/01/21 08:28:33;;;;;;;20.08;13.73;;;20.80;42.70;;;;;;5048314;28;20064;-77
2024/01/21 08:31:03;;;;;;;25.60;14.25;;;20.90;40.70;;;;;;5048805;28;20045;-78
2024/01/21 08:33:29;;;;;;;22.05;13.80;;;21.00;40.70;;;;;;5048792;28;20056;-78
2024/01/21 08:35:55;;;;;;;20.33;13.02;;;20.90;40.70;;;;;;5048403;28;20515;-78
2024/01/21 08:38:21;;;;;;;19.25;12.40;;;21.00;40.40;;;;;;5048104;28;20064;-75
2024/01/21 08:40:47;;;;;;;18.75;12.18;;;21.00;40.40;;;;;;5049257;28;20063;-77
2024/01/21 08:43:13;;;;;;;15.00;11.20;;;20.90;40.50;;;;;;5045471;28;20091;-78
2024/01/21 08:45:39;;;;;;;20.63;11.00;;;21.00;40.70;;;;;;5052179;28;20041;-77
2024/01/21 08:48:06;;;;;;;16.33;10.48;;;20.90;40.70;;;;;;5077048;28;20047;-78
2024/01/21 08:50:32;;;;;;;19.00;11.68;;;20.80;40.60;;;;;;5111492;28;20026;-77
2024/01/21 08:52:59;;;;;;;18.10;9.63;;;20.90;40.60;;;;;;5115641;28;20040;-78
2024/01/21 08:55:25;;;;;;;12.68;8.98;;;21.00;40.40;;;;;;5115516;28;20024;-77
2024/01/21 08:57:51;;;;;;;12.43;8.60;;;21.00;40.50;;;;;;5115258;28;20428;-77
2024/01/21 09:00:18;;;;;;;13.38;8.70;;;20.90;40.50;;;;;;5115813;28;20402;-77
2024/01/21 09:02:44;;;;;;;14.75;8.90;;;21.00;40.50;;;;;;5097415;28;20031;-78
2024/01/21 09:05:28;;;;;;;16.40;9.63;;;20.90;40.50;;;;;;5116163;28;20089;-76
2024/01/21 09:07:54;;;;;;;13.80;9.30;;;21.00;40.40;;;;;;5115494;28;20035;-78
2024/01/21 09:10:21;;;;;;;11.27;8.27;;;21.10;40.50;;;;;;5097150;28;20065;-77
2024/01/21 09:12:50;;;;;;;13.25;8.45;;;21.00;40.40;;;;;;5097431;28;20039;-77
2024/01/21 09:15:21;;;;;;;16.45;9.38;;;21.10;40.40;;;;;;5115370;28;20032;-77
2024/01/21 09:17:50;;;;;;;12.68;8.50;;;20.90;40.40;;;;;;5052055;28;20090;-77
2024/01/21 09:20:17;;;;;;;14.43;8.45;;;21.00;40.40;;;;;;5035587;28;20481;-78
2024/01/21 09:22:43;;;;;;;15.35;8.68;;;21.10;40.50;;;;;;5052158;28;20059;-78
2024/01/21 09:25:09;;;;;;;12.60;8.05;;;20.90;40.40;;;;;;5052102;28;20032;-77
2024/01/21 09:27:35;;;;;;;15.60;8.02;;;20.90;40.50;;;;;;5051327;28;20499;-77
2024/01/21 09:30:01;;;;;;;12.15;8.02;;;20.90;40.50;;;;;;5051791;28;20131;-77
2024/01/21 09:32:28;;;;;;;9.65;6.53;;;21.00;40.50;;;;;;5051949;28;20055;-77
2024/01/21 09:34:56;;;;;;;8.75;5.07;;;21.00;40.50;;;;;;5051833;28;20049;-78
2024/01/21 09:37:25;;;;;;;6.63;4.55;;;20.80;40.50;;;;;;5035543;28;20061;-78
2024/01/21 09:39:51;;;;;;;9.18;4.80;;;20.80;40.50;;;;;;5034759;28;20622;-78
2024/01/21 09:42:18;;;;;;;6.88;4.13;;;21.00;40.50;;;;;;5051604;28;20036;-78
2024/01/21 09:44:45;;;;;;;6.30;4.30;;;20.80;40.40;;;;;;5051471;28;20144;-78
2024/01/21 09:47:13;;;;;;;9.73;4.50;;;21.00;40.40;;;;;;5051614;28;20124;-77
2024/01/21 09:49:41;;;;;;;7.75;4.55;;;21.00;40.30;;;;;;5105312;28;20105;-77
2024/01/21 09:52:07;;;;;;;5.72;4.30;;;21.10;40.40;;;;;;5114787;28;20024;-77
2024/01/21 09:54:33;;;;;;;6.03;4.25;;;21.00;40.30;;;;;;5114527;28;20040;-78
2024/01/21 09:57:05;;;;;;;6.63;4.10;;;21.10;40.40;;;;;;5049907;28;20425;-76
2024/01/21 09:59:32;;;;;;;6.50;4.40;;;20.90;40.30;;;;;;5098333;28;20036;-78
2024/01/21 10:01:58;;;;;;;6.63;4.50;;;21.10;40.40;;;;;;5114697;28;20032;-78
2024/01/21 10:04:24;;;;;;;5.47;4.75;;;21.00;40.30;;;;;;5114057;28;20036;-78
2024/01/21 10:06:51;;;;;;;5.43;4.13;;;21.00;40.20;;;;;;5114424;28;20140;-77
2024/01/21 10:09:21;;;;;;;8.43;4.28;;;21.10;40.30;;;;;;5095863;28;20036;-77
2024/01/21 10:11:57;;;;;;;5.93;3.72;;;21.10;40.20;;;;;;5113990;28;20050;-78
2024/01/21 10:14:33;;;;;;;5.82;4.13;;;21.00;40.20;;;;;;5114396;28;20501;-78
2024/01/21 10:17:00;;;;;;;9.05;3.70;;;21.00;40.30;;;;;;5096517;28;20118;-77
2024/01/21 10:19:30;;;;;;;6.65;4.70;;;21.10;40.40;;;;;;5114416;28;20034;-78
2024/01/21 10:22:16;;;;;;;6.68;4.22;;;21.00;40.40;;;;;;5114383;28;20035;-78
2024/01/21 10:24:44;;;;;;;6.95;5.40;;;21.00;40.40;;;;;;5114710;28;20431;-77
2024/01/21 10:27:11;;;;;;;6.05;4.63;;;20.90;40.40;;;;;;5095403;28;20126;-77
2024/01/21 10:29:42;;;;;;;7.75;4.63;;;20.90;40.40;;;;;;5114202;28;20047;-78
2024/01/21 10:32:09;;;;;;;6.88;4.70;;;21.00;40.50;;;;;;5113984;28;20043;-77
2024/01/21 10:34:48;;;;;;;6.45;4.93;;;21.00;40.50;;;;;;5113974;28;20398;-78
2024/01/21 10:37:17;;;;;;;7.93;4.90;;;20.90;40.60;;;;;;5132446;27;20474;-78
2024/01/21 10:39:46;;;;;;;10.00;5.43;;;21.00;40.70;;;;;;5134793;27;20031;-78
2024/01/21 10:42:14;;;;;;;8.40;4.63;;;20.80;40.50;;;;;;5099629;28;20039;-78
2024/01/21 10:44:40;;;;;;;6.97;4.68;;;20.90;40.60;;;;;;5113924;28;20028;-78
2024/01/21 10:47:12;;;;;;;6.15;4.65;;;20.90;40.60;;;;;;5095580;28;20096;-77
2024/01/21 10:49:40;;;;;;;6.20;4.25;;;20.90;40.50;;;;;;5073481;28;20109;-78
2024/01/21 10:52:09;;;;;;;5.55;4.70;;;21.00;40.50;;;;;;5074077;28;20044;-78
2024/01/21 10:54:37;;;;;;;6.88;4.78;;;21.00;40.50;;;;;;5090435;28;20051;-77
2024/01/21 10:57:04;;;;;;;7.72;4.82;;;21.10;40.50;;;;;;5090519;28;20117;-78
2024/01/21 10:59:31;;;;;;;7.55;4.40;;;21.00;40.40;;;;;;5090575;28;20629;-77
2024/01/21 11:01:57;;;;;;;8.90;4.60;;;21.00;40.40;;;;;;5073569;28;20411;-78
2024/01/21 11:04:23;;;;;;;5.43;3.78;;;20.90;40.40;;;;;;5090150;28;20453;-77
2024/01/21 11:06:51;;;;;;;5.90;3.85;;;20.90;40.40;;;;;;5073659;28;20491;-75
2024/01/21 11:09:22;;;;;;;5.57;4.10;;;21.10;40.40;;;;;;5090268;28;20048;-77
2024/01/21 11:11:50;;;;;;;6.47;4.00;;;20.90;40.40;;;;;;5073433;28;20417;-79
2024/01/21 11:14:40;;;;;;;7.47;3.85;;;21.00;40.50;;;;;;5073265;28;20070;-77
2024/01/21 11:17:11;;;;;;;7.53;4.22;;;21.00;40.50;;;;;;5094332;28;20048;-78
2024/01/21 11:19:42;;;;;;;6.05;3.83;;;20.90;40.40;;;;;;5092571;28;20047;-77
2024/01/21 11:22:12;;;;;;;5.50;3.95;;;20.90;40.70;;;;;;5113462;28;20387;-78
2024/01/21 11:24:40;;;;;;;4.90;3.72;;;20.90;40.70;;;;;;5112974;28;20062;-77
2024/01/21 11:27:29;;;;;;;3.95;3.10;;;20.90;40.80;;;;;;5113942;28;20490;-78
2024/01/21 11:30:01;;;;;;;4.68;3.67;;;20.90;40.80;;;;;;5099211;28;20044;-78
2024/01/21 11:32:30;;;;;;;6.60;3.40;;;20.90;40.90;;;;;;5096885;28;20043;-78
2024/01/21 11:35:07;;;;;;;5.65;3.45;;;20.90;41.00;;;;;;5112726;28;20030;-78
2024/01/21 11:37:34;;;;;;;4.70;3.10;;;20.90;41.00;;;;;;5112372;28;20447;-78
2024/01/21 11:40:01;;;;;;;4.57;3.38;;;20.90;41.00;;;;;;5076120;28;20199;-78
2024/01/21 11:42:31;;;;;;;5.50;3.30;;;20.90;40.90;;;;;;5112923;28;20047;-78
2024/01/21 11:45:04;;;;;;;6.78;4.25;;;21.00;40.80;;;;;;5113186;28;20046;-78
2024/01/21 11:47:32;;;;;;;7.35;3.60;;;20.90;40.80;;;;;;5112935;28;20124;-78
2024/01/21 11:50:00;;;;;;;5.68;3.88;;;20.90;40.80;;;;;;5112704;28;20427;-78
2024/01/21 11:52:26;;;;;;;5.90;3.80;;;21.00;40.80;;;;;;5112581;28;20367;-78
2024/01/21 11:54:52;;;;;;;5.90;3.72;;;21.00;40.80;;;;;;5113271;28;20410;-77
2024/01/21 11:57:19;;;;;;;4.93;3.60;;;21.00;40.70;;;;;;5113436;28;20023;-78
2024/01/21 11:59:45;;;;;;;7.18;4.07;;;21.10;40.80;;;;;;5113910;28;20356;-77
2024/01/21 12:02:12;;;;;;;5.68;4.55;;;21.00;40.70;;;;;;5113537;28;20065;-77
2024/01/21 12:04:38;;;;;;;6.13;4.05;;;21.00;40.70;;;;;;5113558;28;20031;-78
2024/01/21 12:07:05;;;;;;;5.65;3.97;;;21.00;40.60;;;;;;5116018;28;20163;-78
2024/01/21 12:09:32;;;;;;;5.50;3.97;;;20.90;40.70;;;;;;5119101;28;20502;-78
2024/01/21 12:11:59;;;;;;;9.20;3.90;;;20.90;40.70;;;;;;5101798;28;20038;-77
2024/01/21 12:14:25;;;;;;;5.65;3.67;;;21.00;40.80;;;;;;5119598;28;20028;-78
2024/01/21 12:16:54;;;;;;;6.10;4.10;;;20.90;40.80;;;;;;5120214;28;20027;-78
2024/01/21 12:19:21;;;;;;;5.75;3.65;;;20.90;41.00;;;;;;5120919;28;20035;-78
2024/01/21 12:21:47;;;;;;;6.70;3.83;;;20.80;40.80;;;;;;5119555;28;20110;-77
2024/01/21 12:24:14;;;;;;;5.10;4.03;;;21.00;41.00;;;;;;5121477;28;20036;-78
2024/01/21 12:26:44;;;;;;;6.65;4.07;;;20.90;41.00;;;;;;5114603;28;20027;-78
2024/01/21 12:29:11;;;;;;;5.32;3.33;;;20.80;41.00;;;;;;5111574;28;20051;-78
2024/01/21 12:31:39;;;;;;;4.20;2.95;;;20.90;41.10;;;;;;5111434;28;20495;-77